Aviation Digital Data Service (ADDS)

Output produced by METARs form (1010 UTC 18 January 2017)
found at http://aviationweather.gov/adds/metars/
 
KALB 180538Z 1806/1906 18006KT 4SM -RA BR BKN006 OVC015 
     TEMPO 1808/1812 1SM -RAPL BR SCT006 OVC015 
     FM181200 05003KT 3SM BR VCSH BKN006 OVC015 
     FM181800 VRB03KT 4SM BR VCSH OVC015